Time;durP1;ratioP1;P1;durP2;ratioP2;P2;SDS_P1;SDS_P2;PMS_P1;PMS_P2;Temp;Humidity;BMP_temperature;BMP_pressure;BME280_temperature;BME280_humidity;BME280_pressure;Samples;Min_cycle;Max_cycle;Signal;HPM_P1;HPM_P2
2021/12/14 00:00:50;;;;;;;4.20;3.80;;;;;;;;;;5012548;28;20778;-52
2021/12/14 00:03:18;;;;;;;4.93;3.83;;;;;;;;;;5012555;28;20395;-51
2021/12/14 00:05:44;;;;;;;4.70;4.10;;;;;;;;;;5012200;28;20508;-52
2021/12/14 00:08:15;;;;;;;5.50;4.20;;;;;;;;;;5016230;28;20435;-51
2021/12/14 00:11:12;;;;;;;5.80;4.10;;;;;;;;;;5016959;28;21036;-51
2021/12/14 00:14:24;;;;;;;4.53;3.60;;;;;;;;;;5016969;28;20426;-51
2021/12/14 00:16:18;;;;;;;4.57;4.17;;;;;;;;;;5005746;28;20484;-51
2021/12/14 00:18:44;;;;;;;4.60;3.90;;;;;;;;;;5016998;28;20411;-52
2021/12/14 00:21:19;;;;;;;4.07;3.67;;;;;;;;;;5016670;28;20451;-52
2021/12/14 00:26:30;;;;;;;3.70;3.40;;;;;;;;;;5016310;28;20424;-51
2021/12/14 00:28:56;;;;;;;4.20;3.83;;;;;;;;;;5017229;28;20802;-51
2021/12/14 00:31:22;;;;;;;3.67;3.43;;;;;;;;;;5017606;28;20438;-50
2021/12/14 00:33:51;;;;;;;4.63;4.10;;;;;;;;;;5017400;28;20395;-51
2021/12/14 00:36:18;;;;;;;4.40;4.00;;;;;;;;;;5016875;28;20438;-52
2021/12/14 00:38:45;;;;;;;4.03;3.63;;;;;;;;;;5017041;28;20407;-53
2021/12/14 00:41:14;;;;;;;4.80;4.33;;;;;;;;;;5016500;28;20905;-51
2021/12/14 00:43:41;;;;;;;3.83;3.43;;;;;;;;;;5017414;28;20421;-51
2021/12/14 00:46:08;;;;;;;4.83;4.33;;;;;;;;;;5016839;28;20820;-51
2021/12/14 00:48:34;;;;;;;4.50;3.53;;;;;;;;;;5017850;28;20403;-51
2021/12/14 00:51:01;;;;;;;5.20;3.63;;;;;;;;;;5017664;28;20471;-52
2021/12/14 00:53:27;;;;;;;5.10;4.67;;;;;;;;;;5017031;28;20903;-52
2021/12/14 00:55:55;;;;;;;3.27;3.00;;;;;;;;;;5017314;28;20446;-50
2021/12/14 00:58:22;;;;;;;4.43;4.07;;;;;;;;;;5017962;28;20410;-49
2021/12/14 01:00:50;;;;;;;4.03;3.73;;;;;;;;;;5017927;28;20540;-51
2021/12/14 01:03:17;;;;;;;3.50;3.20;;;;;;;;;;5017463;28;20453;-50
2021/12/14 01:05:44;;;;;;;4.37;3.73;;;;;;;;;;5016952;28;20929;-52
2021/12/14 01:08:12;;;;;;;6.13;4.10;;;;;;;;;;5017125;28;20547;-53
2021/12/14 01:10:41;;;;;;;3.67;3.37;;;;;;;;;;5016787;28;20405;-52
2021/12/14 01:13:09;;;;;;;4.53;4.13;;;;;;;;;;5016891;28;20460;-49
2021/12/14 01:15:52;;;;;;;4.80;4.13;;;;;;;;;;5015988;28;20532;-50
2021/12/14 01:18:32;;;;;;;6.87;4.30;;;;;;;;;;5016838;28;20436;-51
2021/12/14 01:21:08;;;;;;;5.10;4.20;;;;;;;;;;5017360;28;20405;-52
2021/12/14 01:23:34;;;;;;;4.73;4.30;;;;;;;;;;5017143;28;20404;-52
2021/12/14 01:26:09;;;;;;;4.60;4.20;;;;;;;;;;5016328;28;20789;-52
2021/12/14 01:28:36;;;;;;;3.93;3.63;;;;;;;;;;5016931;28;20719;-51
2021/12/14 01:31:16;;;;;;;4.00;3.60;;;;;;;;;;5016930;28;20935;-51
2021/12/14 01:33:44;;;;;;;6.00;4.47;;;;;;;;;;5016875;28;20397;-52
2021/12/14 01:36:24;;;;;;;4.43;3.90;;;;;;;;;;5015858;28;20924;-52
2021/12/14 01:39:10;;;;;;;4.53;3.30;;;;;;;;;;5017117;28;20501;-52
2021/12/14 01:41:36;;;;;;;7.40;4.10;;;;;;;;;;5016511;28;20866;-52
2021/12/14 01:44:02;;;;;;;5.50;3.80;;;;;;;;;;5016813;28;20853;-52
2021/12/14 01:46:28;;;;;;;4.60;4.10;;;;;;;;;;5016540;28;20425;-51
2021/12/14 01:48:55;;;;;;;4.20;3.80;;;;;;;;;;5016781;28;20414;-51
2021/12/14 01:51:21;;;;;;;4.60;4.20;;;;;;;;;;5015322;28;20641;-53
2021/12/14 01:53:50;;;;;;;5.10;4.57;;;;;;;;;;5016313;28;21085;-52
2021/12/14 01:56:17;;;;;;;5.53;3.87;;;;;;;;;;5015039;28;20493;-52
2021/12/14 01:58:45;;;;;;;5.53;4.30;;;;;;;;;;5015015;28;20408;-52
2021/12/14 02:01:23;;;;;;;5.20;3.90;;;;;;;;;;5013932;28;20548;-52
2021/12/14 02:04:00;;;;;;;4.90;4.20;;;;;;;;;;5014310;28;20430;-52
2021/12/14 02:06:29;;;;;;;7.13;4.70;;;;;;;;;;5013808;28;20426;-50
2021/12/14 02:08:57;;;;;;;4.77;3.87;;;;;;;;;;5014899;28;20405;-52
2021/12/14 02:11:25;;;;;;;6.00;4.80;;;;;;;;;;5015084;28;20891;-51
2021/12/14 02:13:55;;;;;;;5.30;4.20;;;;;;;;;;5015516;28;20440;-51
2021/12/14 02:16:22;;;;;;;7.23;4.10;;;;;;;;;;5014547;28;20518;-50
2021/12/14 02:18:51;;;;;;;4.33;3.93;;;;;;;;;;5015977;28;20405;-50
2021/12/14 02:21:17;;;;;;;4.30;3.90;;;;;;;;;;5015243;28;20540;-51
2021/12/14 02:23:46;;;;;;;6.07;4.07;;;;;;;;;;5015710;28;20410;-49
2021/12/14 02:26:14;;;;;;;6.53;4.67;;;;;;;;;;5015391;28;20429;-53
2021/12/14 02:28:40;;;;;;;5.60;4.27;;;;;;;;;;5015938;28;20434;-51
2021/12/14 02:31:08;;;;;;;4.40;4.00;;;;;;;;;;5015710;28;20411;-51
2021/12/14 02:33:36;;;;;;;12.10;4.40;;;;;;;;;;5015623;28;20406;-51
2021/12/14 02:36:04;;;;;;;5.67;4.70;;;;;;;;;;5014267;28;20434;-52
2021/12/14 02:38:30;;;;;;;5.97;4.60;;;;;;;;;;5015902;28;20413;-52
2021/12/14 02:41:02;;;;;;;6.17;4.50;;;;;;;;;;5015406;28;20746;-53
2021/12/14 02:43:28;;;;;;;9.37;5.10;;;;;;;;;;5015125;28;20405;-51
2021/12/14 02:46:00;;;;;;;6.03;4.67;;;;;;;;;;5015028;28;20488;-52
2021/12/14 02:48:27;;;;;;;5.10;4.33;;;;;;;;;;5015126;28;20410;-51
2021/12/14 02:50:53;;;;;;;6.40;5.27;;;;;;;;;;5015073;28;20402;-50
2021/12/14 02:53:19;;;;;;;8.00;4.97;;;;;;;;;;5015064;28;20502;-52
2021/12/14 02:55:45;;;;;;;7.27;5.07;;;;;;;;;;5014730;28;20663;-53
2021/12/14 02:58:11;;;;;;;4.80;4.37;;;;;;;;;;5015870;28;20490;-51
2021/12/14 03:00:48;;;;;;;7.90;5.50;;;;;;;;;;5015542;28;20400;-52
2021/12/14 03:03:16;;;;;;;6.00;4.70;;;;;;;;;;5015880;28;20420;-51
2021/12/14 03:05:43;;;;;;;6.30;4.80;;;;;;;;;;5014680;28;20442;-51
2021/12/14 03:08:15;;;;;;;5.10;4.47;;;;;;;;;;5015268;28;20394;-51
2021/12/14 03:11:17;;;;;;;7.43;5.00;;;;;;;;;;5015476;28;20439;-51
2021/12/14 03:13:37;;;;;;;8.77;5.47;;;;;;;;;;5011659;28;20532;-52
2021/12/14 03:16:06;;;;;;;9.73;5.23;;;;;;;;;;5015006;28;20522;-52
2021/12/14 03:18:34;;;;;;;7.00;6.17;;;;;;;;;;5015768;28;20456;-51
2021/12/14 03:21:08;;;;;;;7.63;5.60;;;;;;;;;;5015572;28;20448;-52
2021/12/14 03:23:36;;;;;;;6.13;4.97;;;;;;;;;;5015810;28;20398;-52
2021/12/14 03:26:04;;;;;;;7.57;5.73;;;;;;;;;;5015369;28;20454;-51
2021/12/14 03:28:31;;;;;;;6.13;5.30;;;;;;;;;;5015869;28;20437;-53
2021/12/14 03:31:05;;;;;;;9.13;6.20;;;;;;;;;;5015674;28;20421;-52
2021/12/14 03:33:33;;;;;;;6.03;5.43;;;;;;;;;;5016066;28;20408;-52
2021/12/14 03:36:08;;;;;;;8.53;5.10;;;;;;;;;;5015160;28;20422;-51
2021/12/14 03:38:39;;;;;;;7.77;6.33;;;;;;;;;;5015031;28;20400;-50
2021/12/14 03:41:06;;;;;;;9.97;7.10;;;;;;;;;;5015071;28;20410;-52
2021/12/14 03:43:32;;;;;;;10.43;6.37;;;;;;;;;;5017848;28;20398;-51
2021/12/14 03:45:58;;;;;;;7.40;5.30;;;;;;;;;;5018395;28;20518;-51
2021/12/14 03:48:26;;;;;;;9.17;6.50;;;;;;;;;;5018340;28;20910;-52
2021/12/14 03:50:52;;;;;;;8.13;5.97;;;;;;;;;;5017975;28;20415;-52
2021/12/14 03:53:19;;;;;;;8.83;5.77;;;;;;;;;;5017429;28;20915;-52
2021/12/14 03:55:47;;;;;;;7.80;5.90;;;;;;;;;;5017286;28;20499;-53
2021/12/14 03:58:19;;;;;;;7.50;5.93;;;;;;;;;;5017985;28;20399;-51
2021/12/14 04:00:48;;;;;;;7.70;6.23;;;;;;;;;;5015381;28;20890;-52
2021/12/14 04:03:16;;;;;;;12.47;7.50;;;;;;;;;;5015264;28;20510;-51
2021/12/14 04:05:43;;;;;;;10.00;6.10;;;;;;;;;;5014638;28;20509;-52
2021/12/14 04:08:10;;;;;;;10.10;6.40;;;;;;;;;;5015259;28;20393;-52
2021/12/14 04:10:37;;;;;;;11.57;7.80;;;;;;;;;;5015144;28;20408;-51
2021/12/14 04:13:04;;;;;;;11.83;8.57;;;;;;;;;;5015163;28;20406;-51
2021/12/14 04:15:30;;;;;;;10.90;7.33;;;;;;;;;;5014406;28;20873;-51
2021/12/14 04:17:56;;;;;;;9.20;7.30;;;;;;;;;;5015177;28;20417;-51
2021/12/14 04:20:25;;;;;;;9.37;7.20;;;;;;;;;;5014887;28;20517;-51
2021/12/14 04:22:52;;;;;;;9.70;7.13;;;;;;;;;;5014892;28;20543;-52
2021/12/14 04:25:24;;;;;;;7.47;6.17;;;;;;;;;;5014273;28;20427;-51
2021/12/14 04:27:51;;;;;;;12.10;7.67;;;;;;;;;;5014757;28;20428;-51
2021/12/14 04:30:18;;;;;;;9.20;7.00;;;;;;;;;;5014908;28;20413;-52
2021/12/14 04:32:48;;;;;;;11.63;8.27;;;;;;;;;;5014818;28;20413;-49
2021/12/14 04:35:14;;;;;;;12.53;8.47;;;;;;;;;;5014394;28;20944;-51
2021/12/14 04:37:42;;;;;;;11.47;8.53;;;;;;;;;;5014762;28;20405;-51
2021/12/14 04:54:04;;;;;;;9.97;7.57;;;;;;;;;;5013310;28;20411;-51
2021/12/14 04:56:50;;;;;;;14.47;8.43;;;;;;;;;;5013637;28;20430;-51
2021/12/14 04:59:23;;;;;;;19.20;9.33;;;;;;;;;;5014203;28;20417;-51
2021/12/14 05:01:50;;;;;;;16.27;9.17;;;;;;;;;;5014302;28;20457;-51
2021/12/14 05:04:18;;;;;;;15.83;10.30;;;;;;;;;;5014113;28;20406;-51
2021/12/14 05:06:49;;;;;;;16.53;9.90;;;;;;;;;;5013524;28;20425;-51
2021/12/14 05:09:23;;;;;;;16.60;10.10;;;;;;;;;;5014287;28;20402;-51
2021/12/14 05:11:53;;;;;;;20.50;11.07;;;;;;;;;;5014083;28;20809;-51
2021/12/14 05:14:20;;;;;;;15.47;10.27;;;;;;;;;;5014003;28;20411;-50
2021/12/14 05:16:46;;;;;;;16.40;10.40;;;;;;;;;;5013371;28;20514;-51
2021/12/14 05:19:13;;;;;;;17.90;10.10;;;;;;;;;;5013965;28;20446;-52
2021/12/14 05:21:46;;;;;;;16.17;10.23;;;;;;;;;;5013787;28;20482;-51
2021/12/14 05:24:14;;;;;;;21.30;10.60;;;;;;;;;;5013886;28;20434;-51
2021/12/14 05:26:41;;;;;;;18.57;9.60;;;;;;;;;;5013236;28;20631;-51
2021/12/14 05:29:10;;;;;;;20.10;9.30;;;;;;;;;;5013686;28;20445;-51
2021/12/14 05:31:41;;;;;;;19.07;12.03;;;;;;;;;;5013588;28;20877;-51
2021/12/14 05:34:07;;;;;;;20.27;10.50;;;;;;;;;;5013772;28;21041;-51
2021/12/14 05:36:33;;;;;;;19.67;10.53;;;;;;;;;;5012911;28;20436;-51
2021/12/14 05:39:01;;;;;;;22.50;10.93;;;;;;;;;;5013606;28;20423;-52
2021/12/14 05:44:16;;;;;;;20.03;11.60;;;;;;;;;;5013544;28;20422;-51
2021/12/14 05:46:49;;;;;;;25.60;11.50;;;;;;;;;;5012737;28;20483;-52
2021/12/14 05:49:16;;;;;;;27.20;11.30;;;;;;;;;;5013516;28;20398;-51
2021/12/14 05:51:42;;;;;;;22.53;12.40;;;;;;;;;;5013294;28;20408;-51
2021/12/14 05:54:09;;;;;;;24.10;12.00;;;;;;;;;;5013240;28;20412;-51
2021/12/14 05:56:35;;;;;;;21.50;11.43;;;;;;;;;;5012448;28;20419;-51
2021/12/14 05:59:02;;;;;;;19.07;12.20;;;;;;;;;;5013259;28;20490;-51
2021/12/14 06:01:29;;;;;;;21.77;12.27;;;;;;;;;;5013094;28;20829;-51
2021/12/14 06:04:00;;;;;;;23.77;13.10;;;;;;;;;;5013015;28;20401;-50
2021/12/14 06:06:37;;;;;;;18.17;11.40;;;;;;;;;;5011638;28;20433;-51
2021/12/14 06:09:08;;;;;;;27.83;13.17;;;;;;;;;;5012147;28;20392;-52
2021/12/14 06:11:35;;;;;;;24.63;13.60;;;;;;;;;;5012281;28;20768;-51
2021/12/14 06:14:01;;;;;;;21.67;12.20;;;;;;;;;;5012140;28;20484;-51
2021/12/14 06:16:36;;;;;;;21.30;13.00;;;;;;;;;;5009904;28;20516;-51
2021/12/14 06:19:17;;;;;;;22.70;12.57;;;;;;;;;;5011329;28;20434;-51
2021/12/14 06:21:45;;;;;;;29.43;13.23;;;;;;;;;;5012154;28;20467;-52
2021/12/14 06:24:11;;;;;;;31.57;12.90;;;;;;;;;;5011532;28;20407;-51
2021/12/14 06:26:38;;;;;;;29.37;12.20;;;;;;;;;;5010633;28;21008;-51
2021/12/14 06:29:09;;;;;;;29.17;13.37;;;;;;;;;;5012069;28;20518;-52
2021/12/14 06:31:35;;;;;;;22.43;11.97;;;;;;;;;;5012195;28;20462;-51
2021/12/14 06:34:11;;;;;;;19.13;12.20;;;;;;;;;;5012478;28;20417;-52
2021/12/14 06:36:48;;;;;;;21.07;11.63;;;;;;;;;;5011654;28;20479;-51
2021/12/14 06:39:15;;;;;;;25.13;12.27;;;;;;;;;;5012543;28;20409;-52
2021/12/14 06:41:41;;;;;;;26.13;12.37;;;;;;;;;;5012349;28;20460;-51
2021/12/14 06:44:07;;;;;;;23.60;13.13;;;;;;;;;;5012471;28;20416;-52
2021/12/14 06:46:37;;;;;;;24.43;11.90;;;;;;;;;;5011602;28;20927;-51
2021/12/14 06:49:11;;;;;;;19.10;11.03;;;;;;;;;;5012467;28;20409;-51
2021/12/14 06:51:39;;;;;;;27.57;13.20;;;;;;;;;;5012291;28;20810;-52
2021/12/14 06:54:07;;;;;;;24.73;11.73;;;;;;;;;;5012351;28;20888;-51
2021/12/14 06:56:34;;;;;;;22.07;11.80;;;;;;;;;;5011555;28;20431;-51
2021/12/14 06:59:02;;;;;;;25.40;11.97;;;;;;;;;;5012196;28;20445;-51
2021/12/14 07:01:30;;;;;;;21.53;11.07;;;;;;;;;;5012077;28;20463;-52
2021/12/14 07:04:07;;;;;;;25.97;12.13;;;;;;;;;;5012307;28;20398;-52
2021/12/14 07:06:54;;;;;;;18.47;11.50;;;;;;;;;;5011316;28;20439;-51
2021/12/14 07:09:23;;;;;;;19.50;10.70;;;;;;;;;;5011894;28;21132;-51
2021/12/14 07:12:00;;;;;;;19.97;11.37;;;;;;;;;;5011982;28;20418;-51
2021/12/14 07:14:29;;;;;;;21.00;11.93;;;;;;;;;;5011941;28;20416;-51
2021/12/14 07:17:01;;;;;;;18.27;10.97;;;;;;;;;;5011446;28;20444;-51
2021/12/14 07:19:46;;;;;;;20.53;12.23;;;;;;;;;;5011995;28;20908;-52
2021/12/14 07:22:25;;;;;;;19.63;11.40;;;;;;;;;;5011877;28;20486;-51
2021/12/14 07:24:59;;;;;;;22.20;11.47;;;;;;;;;;5011357;28;21487;-51
2021/12/14 07:27:27;;;;;;;24.27;12.33;;;;;;;;;;5011839;28;20400;-52
2021/12/14 07:29:54;;;;;;;21.23;12.20;;;;;;;;;;5011886;28;20403;-51
2021/12/14 07:32:38;;;;;;;25.13;13.87;;;;;;;;;;5011809;28;20412;-52
2021/12/14 07:35:33;;;;;;;22.13;12.20;;;;;;;;;;5011185;28;20467;-51
2021/12/14 07:38:02;;;;;;;21.50;11.87;;;;;;;;;;4975469;28;20427;-52
2021/12/14 07:40:33;;;;;;;23.90;12.57;;;;;;;;;;5011725;28;20489;-51
2021/12/14 07:43:11;;;;;;;25.90;12.03;;;;;;;;;;5011750;28;20518;-51
2021/12/14 07:45:37;;;;;;;20.97;12.77;;;;;;;;;;5011107;28;20425;-51
2021/12/14 07:48:03;;;;;;;22.10;12.00;;;;;;;;;;5011732;28;20404;-52
2021/12/14 07:50:37;;;;;;;22.17;12.70;;;;;;;;;;5011692;28;20881;-51
2021/12/14 07:53:03;;;;;;;22.70;12.50;;;;;;;;;;5011574;28;20406;-52
2021/12/14 07:55:29;;;;;;;24.57;13.43;;;;;;;;;;5010966;28;20791;-51
2021/12/14 07:57:55;;;;;;;23.07;12.97;;;;;;;;;;5011539;28;20409;-51
2021/12/14 08:00:23;;;;;;;20.13;12.70;;;;;;;;;;5021026;28;20509;-51
2021/12/14 08:02:51;;;;;;;21.23;12.07;;;;;;;;;;5011611;28;20463;-50
2021/12/14 08:05:28;;;;;;;22.33;13.07;;;;;;;;;;5010857;28;20426;-51
2021/12/14 08:07:57;;;;;;;21.80;12.37;;;;;;;;;;5011547;28;20412;-51
2021/12/14 08:10:28;;;;;;;21.60;13.40;;;;;;;;;;5011801;28;20877;-52
2021/12/14 08:12:58;;;;;;;24.67;13.73;;;;;;;;;;5011531;28;20489;-51
2021/12/14 08:15:24;;;;;;;24.27;12.03;;;;;;;;;;5009511;28;20452;-51
2021/12/14 08:17:59;;;;;;;22.00;11.83;;;;;;;;;;5011421;28;20412;-52
2021/12/14 08:20:26;;;;;;;24.03;12.70;;;;;;;;;;5011383;28;20938;-51
2021/12/14 08:22:53;;;;;;;24.50;13.03;;;;;;;;;;5011333;28;20447;-52
2021/12/14 08:25:23;;;;;;;21.30;11.10;;;;;;;;;;5010599;28;20512;-52
2021/12/14 08:27:56;;;;;;;28.17;13.10;;;;;;;;;;5011479;28;20422;-51
2021/12/14 08:30:22;;;;;;;22.07;12.23;;;;;;;;;;5015284;28;20404;-51
2021/12/14 08:32:48;;;;;;;27.90;13.10;;;;;;;;;;5014714;28;20406;-51
2021/12/14 08:35:15;;;;;;;22.27;13.40;;;;;;;;;;5013950;28;20430;-52
2021/12/14 08:37:43;;;;;;;28.90;14.20;;;;;;;;;;5014689;28;20414;-51
2021/12/14 08:40:09;;;;;;;28.23;14.27;;;;;;;;;;5014608;28;20413;-52
2021/12/14 08:42:44;;;;;;;26.93;14.90;;;;;;;;;;5014342;28;20548;-51
2021/12/14 08:45:26;;;;;;;24.30;13.07;;;;;;;;;;5012875;28;21015;-51
2021/12/14 08:47:54;;;;;;;31.37;14.80;;;;;;;;;;5014460;28;20411;-51
2021/12/14 08:50:20;;;;;;;31.10;15.90;;;;;;;;;;5014283;28;20405;-51
2021/12/14 08:52:47;;;;;;;31.20;15.07;;;;;;;;;;5013632;28;20403;-51
2021/12/14 08:55:16;;;;;;;26.97;14.57;;;;;;;;;;5013575;28;20437;-51
2021/12/14 08:57:42;;;;;;;30.83;14.43;;;;;;;;;;5013065;28;20926;-51
2021/12/14 09:00:12;;;;;;;30.07;14.67;;;;;;;;;;5014348;28;20413;-52
2021/12/14 09:02:39;;;;;;;33.60;16.83;;;;;;;;;;5015624;28;20972;-52
2021/12/14 09:05:13;;;;;;;26.73;15.00;;;;;;;;;;5020273;28;20442;-51
2021/12/14 09:07:40;;;;;;;24.67;16.20;;;;;;;;;;5033953;28;20400;-51
2021/12/14 09:10:09;;;;;;;28.50;15.10;;;;;;;;;;5033774;28;20438;-51
2021/12/14 09:12:39;;;;;;;32.57;17.70;;;;;;;;;;5033721;28;20425;-52
2021/12/14 09:15:13;;;;;;;34.03;17.17;;;;;;;;;;5033055;28;20432;-52
2021/12/14 09:17:40;;;;;;;31.90;16.57;;;;;;;;;;5033686;28;20477;-52
2021/12/14 09:20:12;;;;;;;34.23;15.83;;;;;;;;;;5033573;28;20448;-52
2021/12/14 09:22:41;;;;;;;28.43;14.50;;;;;;;;;;5033293;28;21071;-53
2021/12/14 09:25:08;;;;;;;33.27;16.73;;;;;;;;;;5029571;28;20441;-53
2021/12/14 09:27:35;;;;;;;29.43;15.87;;;;;;;;;;5024666;28;20432;-52
2021/12/14 09:30:01;;;;;;;33.43;17.10;;;;;;;;;;5033376;28;20398;-52
2021/12/14 09:32:28;;;;;;;30.00;16.53;;;;;;;;;;5033383;28;20549;-52
2021/12/14 09:34:58;;;;;;;25.33;14.57;;;;;;;;;;5032652;28;20421;-52
2021/12/14 09:37:26;;;;;;;30.37;16.90;;;;;;;;;;5013250;28;20453;-51
2021/12/14 09:39:55;;;;;;;26.13;15.43;;;;;;;;;;5012495;28;20777;-51
2021/12/14 09:42:24;;;;;;;26.83;17.47;;;;;;;;;;5013875;28;20619;-51
2021/12/14 09:44:52;;;;;;;30.03;17.33;;;;;;;;;;5013523;28;20402;-51
2021/12/14 09:47:19;;;;;;;33.73;17.60;;;;;;;;;;5013830;28;20408;-50
2021/12/14 09:49:47;;;;;;;28.33;18.27;;;;;;;;;;5012389;28;20416;-51
2021/12/14 09:52:19;;;;;;;30.47;15.93;;;;;;;;;;5014083;28;20410;-51
2021/12/14 09:54:47;;;;;;;24.67;14.47;;;;;;;;;;4995881;28;20523;-51
2021/12/14 09:57:20;;;;;;;33.37;17.40;;;;;;;;;;4996105;28;20937;-51
2021/12/14 09:59:46;;;;;;;32.43;17.33;;;;;;;;;;5013518;28;20426;-50
2021/12/14 10:02:18;;;;;;;31.90;16.63;;;;;;;;;;5014578;28;20480;-51
2021/12/14 10:04:51;;;;;;;38.73;16.90;;;;;;;;;;5013362;28;20402;-51
2021/12/14 10:07:18;;;;;;;30.03;15.50;;;;;;;;;;5014751;28;20807;-52
2021/12/14 10:09:47;;;;;;;30.83;17.67;;;;;;;;;;5013993;28;20403;-52
2021/12/14 10:14:50;;;;;;;35.13;16.90;;;;;;;;;;5013049;28;20413;-53
2021/12/14 10:17:18;;;;;;;33.47;19.07;;;;;;;;;;5013710;28;20454;-52
2021/12/14 10:19:44;;;;;;;35.47;18.50;;;;;;;;;;5013627;28;20405;-52
2021/12/14 10:22:13;;;;;;;38.33;19.43;;;;;;;;;;5013175;28;20455;-53
2021/12/14 10:24:39;;;;;;;36.30;19.97;;;;;;;;;;5012894;28;20813;-53
2021/12/14 10:27:11;;;;;;;38.40;19.87;;;;;;;;;;5013500;28;20399;-53
2021/12/14 10:29:37;;;;;;;36.73;19.27;;;;;;;;;;5013304;28;20770;-53
2021/12/14 10:32:05;;;;;;;36.73;18.63;;;;;;;;;;5013193;28;20540;-51
2021/12/14 10:34:35;;;;;;;34.17;19.23;;;;;;;;;;5013273;28;20926;-52
2021/12/14 10:37:15;;;;;;;33.80;17.10;;;;;;;;;;5013296;28;20918;-52
2021/12/14 10:42:41;;;;;;;33.40;19.10;;;;;;;;;;5013154;28;20414;-52
2021/12/14 10:45:07;;;;;;;41.20;17.50;;;;;;;;;;5012793;28;20425;-52
2021/12/14 10:47:33;;;;;;;30.30;15.80;;;;;;;;;;5013040;28;20411;-50
2021/12/14 10:50:01;;;;;;;31.23;17.10;;;;;;;;;;5013267;28;20777;-53
2021/12/14 10:52:28;;;;;;;27.00;16.67;;;;;;;;;;5012381;28;20411;-51
2021/12/14 10:55:01;;;;;;;26.90;16.70;;;;;;;;;;5012358;28;20411;-50
2021/12/14 10:57:29;;;;;;;25.73;15.50;;;;;;;;;;5012890;28;20902;-53
2021/12/14 10:59:56;;;;;;;24.80;14.67;;;;;;;;;;5012539;28;20442;-52
2021/12/14 11:02:25;;;;;;;29.03;16.93;;;;;;;;;;5012251;28;20505;-52
2021/12/14 11:04:57;;;;;;;27.67;15.27;;;;;;;;;;5010880;28;20502;-50
2021/12/14 11:07:26;;;;;;;28.73;16.60;;;;;;;;;;5012598;28;20427;-50
2021/12/14 11:09:55;;;;;;;25.83;15.70;;;;;;;;;;5013620;28;20418;-52
2021/12/14 11:12:26;;;;;;;26.07;15.10;;;;;;;;;;5013366;28;20437;-52
2021/12/14 11:14:58;;;;;;;29.67;15.57;;;;;;;;;;5011375;28;20463;-52
2021/12/14 11:20:16;;;;;;;22.30;14.07;;;;;;;;;;5013369;28;20418;-53
2021/12/14 11:23:11;;;;;;;24.97;15.07;;;;;;;;;;5012853;28;20537;-53
2021/12/14 11:26:00;;;;;;;25.70;15.00;;;;;;;;;;5003238;28;20435;-53
2021/12/14 11:28:29;;;;;;;29.53;15.80;;;;;;;;;;5009348;28;20447;-50
2021/12/14 11:31:03;;;;;;;27.17;16.53;;;;;;;;;;5014470;28;20469;-51
2021/12/14 11:33:31;;;;;;;25.57;15.87;;;;;;;;;;5030724;28;20410;-53
2021/12/14 11:36:10;;;;;;;28.93;14.83;;;;;;;;;;5031951;28;20427;-52
2021/12/14 11:38:49;;;;;;;26.73;15.10;;;;;;;;;;5031899;28;20398;-51
2021/12/14 11:41:24;;;;;;;23.70;14.60;;;;;;;;;;5032184;28;20821;-52
2021/12/14 11:43:55;;;;;;;24.23;15.37;;;;;;;;;;5033490;28;20421;-51
2021/12/14 11:46:21;;;;;;;24.70;15.63;;;;;;;;;;5031913;28;21019;-51
2021/12/14 11:48:47;;;;;;;31.80;15.77;;;;;;;;;;5032602;28;20881;-52
2021/12/14 11:51:13;;;;;;;26.40;15.03;;;;;;;;;;5032316;28;20402;-51
2021/12/14 11:53:47;;;;;;;26.13;17.10;;;;;;;;;;5032612;28;20409;-52
2021/12/14 11:56:15;;;;;;;27.33;15.43;;;;;;;;;;5031420;28;20418;-51
2021/12/14 11:58:51;;;;;;;23.57;15.50;;;;;;;;;;5031927;28;20486;-52
2021/12/14 12:01:26;;;;;;;27.70;15.97;;;;;;;;;;5018538;28;20418;-53
2021/12/14 12:03:56;;;;;;;23.33;14.47;;;;;;;;;;5013950;28;20441;-51
2021/12/14 12:06:45;;;;;;;27.23;15.60;;;;;;;;;;5013852;28;20430;-52
2021/12/14 12:09:30;;;;;;;27.63;15.97;;;;;;;;;;5015728;28;20410;-53
2021/12/14 12:12:08;;;;;;;26.07;15.77;;;;;;;;;;5016673;28;20414;-52
2021/12/14 12:14:52;;;;;;;27.40;15.53;;;;;;;;;;5015910;28;20403;-51
2021/12/14 12:17:18;;;;;;;27.20;15.40;;;;;;;;;;5016217;28;21001;-51
2021/12/14 12:20:02;;;;;;;24.07;15.50;;;;;;;;;;5016187;28;20501;-52
2021/12/14 12:22:51;;;;;;;26.83;16.23;;;;;;;;;;5015875;28;20549;-52
2021/12/14 12:25:32;;;;;;;25.90;17.70;;;;;;;;;;5010634;28;21025;-52
2021/12/14 12:28:06;;;;;;;30.80;17.73;;;;;;;;;;5024334;28;20430;-53
2021/12/14 12:30:33;;;;;;;26.37;14.97;;;;;;;;;;5014568;28;20924;-51
2021/12/14 12:33:02;;;;;;;30.90;17.73;;;;;;;;;;5016054;28;20478;-52
2021/12/14 12:35:31;;;;;;;27.40;16.17;;;;;;;;;;5014826;28;20514;-49
2021/12/14 12:37:58;;;;;;;27.60;16.70;;;;;;;;;;5014613;28;20486;-50
2021/12/14 12:40:36;;;;;;;25.53;16.40;;;;;;;;;;5014309;28;20403;-51
2021/12/14 12:43:12;;;;;;;27.80;15.60;;;;;;;;;;5013701;28;20835;-51
2021/12/14 12:45:40;;;;;;;26.90;15.10;;;;;;;;;;5013908;28;20510;-50
2021/12/14 12:48:07;;;;;;;25.70;16.43;;;;;;;;;;5014593;28;20430;-51
2021/12/14 12:50:34;;;;;;;24.70;14.53;;;;;;;;;;5014318;28;20400;-50
2021/12/14 12:53:00;;;;;;;26.07;15.90;;;;;;;;;;5014491;28;20404;-49
2021/12/14 12:55:35;;;;;;;31.53;17.87;;;;;;;;;;5013830;28;20419;-49
2021/12/14 12:58:11;;;;;;;27.03;15.70;;;;;;;;;;5014565;28;20414;-49
2021/12/14 13:00:43;;;;;;;28.80;16.70;;;;;;;;;;5014394;28;20401;-49
2021/12/14 13:03:09;;;;;;;30.70;16.73;;;;;;;;;;5014329;28;20502;-49
2021/12/14 13:05:44;;;;;;;25.97;15.70;;;;;;;;;;5013607;28;20418;-50
2021/12/14 13:08:10;;;;;;;26.73;15.90;;;;;;;;;;5014192;28;20442;-51
2021/12/14 13:10:36;;;;;;;26.57;16.53;;;;;;;;;;5014025;28;20426;-51
2021/12/14 13:13:08;;;;;;;28.80;16.37;;;;;;;;;;5014128;28;20888;-49
2021/12/14 13:15:43;;;;;;;34.33;16.90;;;;;;;;;;5012335;28;20425;-49
2021/12/14 13:18:28;;;;;;;23.17;15.53;;;;;;;;;;5012994;28;20918;-49
2021/12/14 13:20:58;;;;;;;22.90;14.20;;;;;;;;;;5013765;28;20761;-49
2021/12/14 13:23:37;;;;;;;24.30;14.80;;;;;;;;;;5013655;28;20953;-49
2021/12/14 13:26:18;;;;;;;26.37;16.57;;;;;;;;;;5013124;28;20422;-50
2021/12/14 13:28:44;;;;;;;30.30;17.17;;;;;;;;;;5013185;28;20868;-49
2021/12/14 13:31:10;;;;;;;25.77;16.53;;;;;;;;;;5013990;28;20404;-49
2021/12/14 13:33:36;;;;;;;33.10;17.10;;;;;;;;;;5013583;28;20418;-49
2021/12/14 13:36:02;;;;;;;30.57;18.70;;;;;;;;;;5012962;28;20434;-50
2021/12/14 13:38:28;;;;;;;28.63;15.00;;;;;;;;;;5013605;28;20494;-51
2021/12/14 13:40:55;;;;;;;29.33;17.03;;;;;;;;;;5013466;28;20415;-52
2021/12/14 13:43:21;;;;;;;29.43;16.50;;;;;;;;;;5013503;28;20552;-52
2021/12/14 13:45:49;;;;;;;30.40;18.10;;;;;;;;;;5012844;28;20423;-49
2021/12/14 13:48:18;;;;;;;27.30;17.60;;;;;;;;;;5013453;28;20400;-49
2021/12/14 13:50:51;;;;;;;27.13;17.50;;;;;;;;;;5013389;28;20403;-49
2021/12/14 13:53:18;;;;;;;26.77;16.37;;;;;;;;;;5013459;28;20408;-52
2021/12/14 13:55:44;;;;;;;27.50;16.47;;;;;;;;;;5012520;28;20799;-49
2021/12/14 13:58:16;;;;;;;29.67;17.43;;;;;;;;;;5013274;28;20422;-49
2021/12/14 14:00:42;;;;;;;24.03;15.40;;;;;;;;;;5013229;28;20486;-50
2021/12/14 14:03:08;;;;;;;31.43;17.53;;;;;;;;;;5013116;28;20545;-51
2021/12/14 14:05:34;;;;;;;27.70;16.73;;;;;;;;;;5012547;28;20419;-49
2021/12/14 14:08:03;;;;;;;26.87;17.17;;;;;;;;;;5013039;28;20822;-51
2021/12/14 14:10:30;;;;;;;30.00;17.40;;;;;;;;;;5013125;28;20414;-50
2021/12/14 14:12:57;;;;;;;26.30;16.40;;;;;;;;;;5012935;28;20407;-50
2021/12/14 14:15:28;;;;;;;27.90;17.17;;;;;;;;;;5012580;28;20427;-49
2021/12/14 14:17:55;;;;;;;30.67;18.40;;;;;;;;;;5013365;28;20482;-49
2021/12/14 14:20:24;;;;;;;27.10;17.57;;;;;;;;;;5012841;28;20411;-49
2021/12/14 14:22:50;;;;;;;30.90;17.47;;;;;;;;;;5012869;28;20548;-50
2021/12/14 14:25:20;;;;;;;32.47;18.47;;;;;;;;;;5012084;28;20452;-49
2021/12/14 14:27:48;;;;;;;27.57;19.23;;;;;;;;;;5012774;28;20411;-49
2021/12/14 14:30:32;;;;;;;30.90;18.27;;;;;;;;;;5012632;28;20486;-51
2021/12/14 14:33:00;;;;;;;28.53;17.93;;;;;;;;;;5012656;28;20394;-49
2021/12/14 14:35:39;;;;;;;35.03;19.17;;;;;;;;;;5012034;28;20426;-49
2021/12/14 14:38:43;;;;;;;29.57;18.17;;;;;;;;;;5012600;28;20398;-49
2021/12/14 14:41:09;;;;;;;23.90;15.83;;;;;;;;;;4971215;28;20409;-49
2021/12/14 14:43:54;;;;;;;29.10;16.47;;;;;;;;;;4970921;28;20467;-49
2021/12/14 14:46:38;;;;;;;34.70;19.20;;;;;;;;;;5002741;28;20434;-49
2021/12/14 14:49:08;;;;;;;33.43;17.43;;;;;;;;;;5012458;28;20405;-49
2021/12/14 14:51:45;;;;;;;32.30;17.47;;;;;;;;;;5012282;28;20398;-49
2021/12/14 14:54:29;;;;;;;30.37;17.20;;;;;;;;;;5012295;28;20485;-49
2021/12/14 14:56:55;;;;;;;30.00;17.93;;;;;;;;;;5011854;28;20440;-50
2021/12/14 14:59:21;;;;;;;29.20;16.00;;;;;;;;;;5012212;28;20882;-50
2021/12/14 15:01:47;;;;;;;32.93;18.53;;;;;;;;;;5011874;28;20489;-49
2021/12/14 15:04:13;;;;;;;26.87;15.07;;;;;;;;;;5011935;28;20774;-50
2021/12/14 15:06:40;;;;;;;29.00;16.77;;;;;;;;;;5011197;28;20545;-49
2021/12/14 15:09:19;;;;;;;28.60;16.90;;;;;;;;;;5016522;28;20905;-49
2021/12/14 15:11:50;;;;;;;26.87;16.60;;;;;;;;;;5026310;28;20425;-49